createdAt,value
2022-09-11T00:07:01.793Z,20.42
2022-09-11T00:17:03.760Z,19.07
2022-09-11T00:27:06.989Z,16.37
2022-09-11T00:37:09.609Z,17.20
2022-09-11T00:47:15.028Z,19.49
2022-09-11T00:57:18.406Z,20.35
2022-09-11T01:07:21.815Z,19.19
2022-09-11T01:17:36.111Z,18.66
2022-09-11T01:28:01.200Z,20.19
2022-09-11T01:38:12.514Z,18.81
2022-09-11T01:48:16.419Z,18.17
2022-09-11T01:58:24.963Z,19.83
2022-09-11T02:08:33.113Z,20.35
2022-09-11T02:18:54.156Z,18.75
2022-09-11T02:28:57.118Z,17.95
2022-09-11T02:39:05.440Z,19.31
2022-09-11T02:49:08.072Z,19.74
2022-09-11T02:59:15.418Z,20.08
2022-09-11T03:09:18.168Z,18.55
2022-09-11T03:19:20.853Z,17.81
2022-09-11T03:29:22.728Z,19.37
2022-09-11T03:39:24.695Z,19.90
2022-09-11T03:49:26.758Z,18.31
2022-09-11T03:59:29.550Z,17.70
2022-09-11T04:09:31.871Z,19.34
2022-09-11T04:19:34.537Z,19.87
2022-09-11T04:29:36.456Z,18.51
2022-09-11T04:39:38.341Z,17.78
2022-09-11T04:49:40.540Z,19.32
2022-09-11T04:59:45.155Z,19.86
2022-09-11T05:09:48.044Z,18.61
2022-09-11T05:19:51.340Z,15.97
2022-09-11T05:29:55.798Z,16.95
2022-09-11T05:39:59.532Z,19.13
2022-09-11T05:50:03.187Z,20.06
2022-09-11T06:00:06.088Z,18.86
2022-09-11T06:10:11.398Z,16.19
2022-09-11T06:20:13.391Z,16.94
2022-09-11T06:30:18.852Z,19.12
2022-09-11T06:40:21.263Z,19.97
2022-09-11T06:50:23.712Z,18.64
2022-09-11T07:00:36.873Z,18.22
2022-09-11T07:10:38.838Z,19.88
2022-09-11T07:20:41.573Z,18.76
2022-09-11T07:30:43.381Z,16.29
2022-09-11T07:40:45.528Z,17.02
2022-09-11T07:51:02.444Z,18.96
2022-09-11T08:01:06.024Z,19.41
2022-09-11T08:11:10.157Z,17.88
2022-09-11T08:21:13.368Z,17.51
2022-09-11T08:31:18.082Z,19.47
2022-09-11T08:41:27.999Z,18.73
2022-09-11T08:51:34.294Z,16.27
2022-09-11T09:01:47.672Z,16.87
2022-09-11T09:11:55.894Z,18.78
2022-09-11T09:22:05.933Z,19.58
2022-09-11T09:32:13.840Z,18.34
2022-09-11T09:42:31.848Z,17.83
2022-09-11T09:52:36.479Z,19.82
2022-09-11T10:02:40.953Z,18.54
2022-09-11T10:12:45.708Z,15.86
2022-09-11T10:22:47.719Z,17.60
2022-09-11T10:32:50.353Z,18.56
2022-09-11T10:42:52.719Z,19.31
2022-09-11T10:53:12.792Z,17.47
2022-09-11T11:03:22.610Z,17.34
2022-09-11T11:13:28.825Z,19.52
2022-09-11T11:23:43.430Z,19.33
2022-09-11T11:33:45.691Z,17.58
2022-09-11T11:43:49.119Z,16.82
2022-09-11T11:54:05.316Z,18.45
2022-09-11T12:04:18.092Z,19.24
2022-09-11T12:14:21.341Z,17.80
2022-09-11T12:24:37.614Z,17.18
2022-09-11T12:34:40.144Z,19.38
2022-09-11T12:44:48.286Z,20.66
2022-09-11T12:54:51.089Z,19.51
2022-09-11T13:04:55.333Z,19.10
2022-09-11T13:14:57.846Z,18.81
2022-09-11T13:25:29.364Z,20.85
2022-09-11T13:35:34.639Z,21.89
2022-09-11T13:45:36.550Z,20.33
2022-09-11T13:55:38.388Z,19.60
2022-09-11T14:05:47.697Z,19.07
2022-09-11T14:16:07.798Z,18.63
2022-09-11T14:26:15.229Z,18.46
2022-09-11T14:36:19.982Z,18.13
2022-09-11T14:46:23.363Z,18.22
2022-09-11T14:56:27.074Z,20.94
2022-09-11T15:06:30.226Z,20.45
2022-09-11T15:16:32.514Z,18.30
2022-09-11T15:26:35.770Z,17.10
2022-09-11T15:36:39.094Z,16.40
2022-09-11T15:46:41.379Z,18.12
2022-09-11T15:56:44.038Z,19.16
2022-09-11T16:06:49.308Z,16.96
2022-09-11T16:16:52.964Z,15.83
2022-09-11T16:26:56.331Z,15.14
2022-09-11T16:37:02.070Z,16.99
2022-09-11T16:47:07.915Z,17.47
2022-09-11T16:57:17.859Z,15.04
2022-09-11T17:07:21.020Z,16.29
2022-09-11T17:17:25.806Z,18.32
2022-09-11T17:27:36.883Z,15.70
2022-09-11T17:37:44.655Z,16.14
2022-09-11T17:47:52.127Z,16.53
2022-09-11T17:58:00.065Z,14.13
2022-09-11T18:08:05.252Z,15.30
2022-09-11T18:18:11.270Z,15.92
2022-09-11T18:28:23.455Z,13.84
2022-09-11T18:38:27.121Z,15.37
2022-09-11T18:48:33.335Z,18.03
2022-09-11T18:58:39.159Z,17.48
2022-09-11T19:08:42.181Z,15.22
2022-09-11T19:18:45.721Z,14.00
2022-09-11T19:28:49.556Z,15.38
2022-09-11T19:38:53.162Z,18.23
2022-09-11T19:49:00.570Z,17.58
2022-09-11T19:59:05.097Z,15.16
2022-09-11T20:09:29.736Z,13.93
2022-09-11T20:19:29.331Z,15.53
2022-09-11T20:29:31.429Z,16.50
2022-09-11T20:39:33.178Z,14.60
2022-09-11T20:49:34.995Z,13.70
2022-09-11T20:59:36.780Z,15.41
2022-09-11T21:09:40.418Z,18.16
2022-09-11T21:19:43.440Z,17.41
2022-09-11T21:29:46.154Z,15.07
2022-09-11T21:39:47.926Z,16.10
2022-09-11T21:49:49.768Z,18.56
2022-09-11T21:59:51.744Z,17.86
2022-09-11T22:09:53.440Z,15.36
2022-09-11T22:19:55.730Z,14.06
2022-09-11T22:29:57.538Z,15.58
2022-09-11T22:39:59.274Z,18.35
2022-09-11T22:50:01.043Z,17.50
2022-09-11T23:00:05.616Z,15.04
2022-09-11T23:10:07.593Z,13.83
2022-09-11T23:20:09.460Z,15.48
2022-09-11T23:30:11.571Z,18.03
2022-09-11T23:40:13.353Z,16.38
2022-09-11T23:50:27.737Z,14.33
